Time;durP1;ratioP1;P1;durP2;ratioP2;P2;SDS_P1;SDS_P2;PMS_P1;PMS_P2;Temp;Humidity;BMP_temperature;BMP_pressure;BME280_temperature;BME280_humidity;BME280_pressure;Samples;Min_cycle;Max_cycle;Signal;HPM_P1;HPM_P2
2022/04/05 00:00:54;;;;;;;37.15;20.92;;;10.30;99.90;;;;;;6243530;23;20338;-76
2022/04/05 00:03:19;;;;;;;36.75;22.90;;;10.30;99.90;;;;;;6245000;23;20054;-76
2022/04/05 00:05:45;;;;;;;41.13;23.90;;;10.30;99.90;;;;;;6244918;23;20079;-79
2022/04/05 00:08:11;;;;;;;41.67;25.10;;;10.30;99.90;;;;;;6245329;23;20432;-76
2022/04/05 00:10:36;;;;;;;45.65;26.67;;;10.30;99.90;;;;;;6245438;23;20000;-77
2022/04/05 00:13:06;;;;;;;56.22;29.80;;;10.30;99.90;;;;;;6245668;23;20000;-76
2022/04/05 00:15:33;;;;;;;56.58;31.40;;;10.40;99.90;;;;;;6243151;22;20000;-76
2022/04/05 00:18:02;;;;;;;64.05;32.78;;;10.40;99.90;;;;;;6245773;22;20020;-80
2022/04/05 00:20:28;;;;;;;58.88;32.42;;;10.40;99.90;;;;;;6243570;22;20038;-76
2022/04/05 00:22:54;;;;;;;67.53;34.53;;;10.40;99.90;;;;;;6243120;23;20028;-80
2022/04/05 00:25:20;;;;;;;66.47;34.33;;;10.50;99.90;;;;;;6243838;23;20004;-76
2022/04/05 00:27:47;;;;;;;67.47;35.63;;;10.50;99.90;;;;;;6245186;23;20425;-76
2022/04/05 00:30:13;;;;;;;74.68;41.92;;;10.60;99.90;;;;;;6242400;22;20027;-77
2022/04/05 00:32:39;;;;;;;81.22;40.97;;;10.60;99.90;;;;;;6244581;22;20082;-80
2022/04/05 00:35:05;;;;;;;73.90;40.20;;;10.50;99.90;;;;;;6244702;23;20000;-76
2022/04/05 00:37:31;;;;;;;84.10;41.22;;;10.60;99.90;;;;;;6243453;22;20332;-76
2022/04/05 00:39:57;;;;;;;86.85;40.65;;;10.60;99.90;;;;;;6245003;23;20012;-80
2022/04/05 00:42:22;;;;;;;72.28;38.97;;;10.60;99.90;;;;;;6245389;23;19996;-78
2022/04/05 00:44:48;;;;;;;78.68;40.33;;;10.60;99.90;;;;;;6243439;23;20019;-79
2022/04/05 00:47:22;;;;;;;80.32;41.63;;;10.60;99.90;;;;;;6245253;23;20003;-76
2022/04/05 00:49:50;;;;;;;91.53;43.42;;;10.70;99.90;;;;;;6243240;22;20007;-76
2022/04/05 00:52:18;;;;;;;82.18;41.80;;;10.60;99.90;;;;;;6243704;22;20011;-77
2022/04/05 00:54:45;;;;;;;82.53;41.20;;;10.60;99.90;;;;;;6244253;22;20011;-76
2022/04/05 00:57:14;;;;;;;86.85;42.70;;;10.70;99.90;;;;;;6245498;22;19996;-79
2022/04/05 00:59:41;;;;;;;95.93;44.60;;;10.70;99.90;;;;;;6244195;22;20012;-76
2022/04/05 01:02:11;;;;;;;96.32;44.17;;;10.80;99.90;;;;;;6245510;22;20011;-78
2022/04/05 01:04:40;;;;;;;97.07;44.58;;;10.70;99.90;;;;;;6244071;22;20050;-77
2022/04/05 01:07:10;;;;;;;85.88;41.85;;;10.70;99.90;;;;;;6245514;22;20452;-79
2022/04/05 01:09:37;;;;;;;97.72;45.85;;;10.70;99.90;;;;;;6244793;22;20007;-79
2022/04/05 01:12:05;;;;;;;91.00;43.75;;;10.80;99.90;;;;;;6243825;23;20326;-78
2022/04/05 01:14:31;;;;;;;97.47;45.03;;;10.80;99.90;;;;;;6243328;22;20005;-76
2022/04/05 01:16:57;;;;;;;104.07;48.30;;;10.90;99.90;;;;;;6244085;22;20050;-76
2022/04/05 01:19:23;;;;;;;97.00;45.08;;;10.90;99.90;;;;;;6243557;23;20008;-81
2022/04/05 01:21:49;;;;;;;93.60;42.65;;;10.90;99.90;;;;;;6244640;22;20062;-76
2022/04/05 01:24:15;;;;;;;96.00;45.92;;;10.90;99.90;;;;;;6245502;23;20004;-79
2022/04/05 01:26:43;;;;;;;89.50;43.70;;;11.00;99.90;;;;;;6243042;23;20475;-77
2022/04/05 01:29:10;;;;;;;101.97;46.33;;;11.00;99.90;;;;;;6244955;22;20448;-78
2022/04/05 01:31:46;;;;;;;89.50;44.50;;;11.00;99.90;;;;;;6243973;22;20008;-76
2022/04/05 01:34:14;;;;;;;114.43;48.22;;;11.00;99.90;;;;;;6243092;22;19996;-80
2022/04/05 01:36:43;;;;;;;93.38;44.33;;;11.00;99.90;;;;;;6244360;22;20011;-76
2022/04/05 01:39:09;;;;;;;93.55;44.33;;;11.00;99.90;;;;;;6243507;22;20015;-76
2022/04/05 01:41:36;;;;;;;81.68;41.92;;;11.00;99.90;;;;;;6244006;22;20031;-79
2022/04/05 01:44:05;;;;;;;86.47;42.60;;;11.10;99.90;;;;;;6244943;22;20071;-80
2022/04/05 01:46:32;;;;;;;98.03;45.28;;;11.10;99.90;;;;;;6244691;22;20000;-77
2022/04/05 01:48:57;;;;;;;91.03;44.83;;;11.10;99.90;;;;;;6243342;22;20005;-79
2022/04/05 01:51:23;;;;;;;79.95;40.97;;;11.20;99.90;;;;;;6243486;23;20303;-79
2022/04/05 01:53:49;;;;;;;92.18;42.28;;;11.20;99.90;;;;;;6244090;23;20421;-80
2022/04/05 01:56:14;;;;;;;91.63;42.10;;;11.20;99.90;;;;;;6242602;23;20027;-80
2022/04/05 01:58:40;;;;;;;70.85;37.63;;;11.20;99.90;;;;;;6244661;23;20532;-79
2022/04/05 02:01:06;;;;;;;93.60;41.33;;;11.20;99.90;;;;;;6243569;23;20012;-81
2022/04/05 02:03:32;;;;;;;87.32;41.35;;;11.30;99.90;;;;;;6245900;23;20405;-80
2022/04/05 02:05:57;;;;;;;83.65;40.17;;;11.30;99.90;;;;;;6246133;22;20008;-81
2022/04/05 02:08:23;;;;;;;90.45;40.75;;;11.30;99.90;;;;;;6245282;23;20329;-80
2022/04/05 02:10:49;;;;;;;87.32;39.53;;;11.20;99.90;;;;;;6245212;23;20340;-81
2022/04/05 02:13:15;;;;;;;71.47;36.75;;;11.20;99.90;;;;;;6245560;22;20075;-81
2022/04/05 02:15:40;;;;;;;76.35;36.97;;;11.30;99.90;;;;;;6246539;23;19996;-80
2022/04/05 02:18:06;;;;;;;69.32;33.33;;;11.30;99.90;;;;;;6245014;23;20372;-81
2022/04/05 02:20:33;;;;;;;64.15;31.58;;;11.20;99.90;;;;;;6246940;22;20019;-81
2022/04/05 02:22:59;;;;;;;58.30;31.70;;;11.20;99.90;;;;;;6245228;22;20333;-80
2022/04/05 02:25:26;;;;;;;65.50;33.30;;;11.30;99.90;;;;;;6246561;22;20004;-80
2022/04/05 02:27:52;;;;;;;59.95;32.13;;;11.40;99.90;;;;;;6244905;22;20076;-80
2022/04/05 02:30:18;;;;;;;54.13;30.17;;;11.30;99.90;;;;;;6246538;22;20044;-80
2022/04/05 02:32:44;;;;;;;55.22;29.55;;;11.30;99.90;;;;;;6245009;22;20095;-81
2022/04/05 02:35:11;;;;;;;61.58;30.85;;;11.40;99.90;;;;;;6246183;22;20357;-81
2022/04/05 02:37:37;;;;;;;59.88;30.67;;;11.40;99.90;;;;;;6244868;22;19996;-80
2022/04/05 02:40:03;;;;;;;55.75;29.35;;;11.40;99.90;;;;;;6246084;22;20450;-80
2022/04/05 02:42:29;;;;;;;49.55;26.65;;;11.40;99.90;;;;;;6245173;22;20079;-79
2022/04/05 02:44:55;;;;;;;48.55;25.20;;;11.40;99.90;;;;;;6245848;22;20428;-80
2022/04/05 02:47:22;;;;;;;54.00;27.55;;;11.40;99.90;;;;;;6245799;22;20364;-80
2022/04/05 02:49:48;;;;;;;53.70;29.23;;;11.40;99.90;;;;;;6245537;22;20414;-80
2022/04/05 02:52:15;;;;;;;48.65;26.27;;;11.50;99.90;;;;;;6246151;22;20004;-80
2022/04/05 02:54:41;;;;;;;42.58;24.35;;;11.50;99.90;;;;;;6245447;22;20020;-80
2022/04/05 02:57:07;;;;;;;48.75;26.20;;;11.50;99.90;;;;;;6246272;22;20018;-80
2022/04/05 02:59:33;;;;;;;40.38;23.65;;;11.50;99.90;;;;;;6244403;23;20062;-80
2022/04/05 03:01:59;;;;;;;46.35;26.83;;;11.40;99.90;;;;;;6246548;23;20004;-80
2022/04/05 03:04:24;;;;;;;48.88;26.95;;;11.50;99.90;;;;;;6244749;22;20030;-79
2022/04/05 03:06:51;;;;;;;53.92;26.83;;;11.50;99.90;;;;;;6245958;23;20001;-80
2022/04/05 03:09:16;;;;;;;44.30;25.77;;;11.50;99.90;;;;;;6244904;22;20079;-80
2022/04/05 03:11:43;;;;;;;49.80;27.02;;;11.50;99.90;;;;;;6245873;23;20377;-80
2022/04/05 03:14:10;;;;;;;47.85;26.73;;;11.50;99.90;;;;;;6244501;22;20363;-80
2022/04/05 03:16:37;;;;;;;55.55;28.52;;;11.50;99.90;;;;;;6245907;22;20363;-81
2022/04/05 03:19:05;;;;;;;51.00;27.75;;;11.40;99.90;;;;;;6246387;22;20000;-82
2022/04/05 03:21:32;;;;;;;51.80;27.80;;;11.50;99.90;;;;;;6244696;22;20137;-82
2022/04/05 03:23:57;;;;;;;52.08;29.77;;;11.50;99.90;;;;;;6245785;22;20344;-81
2022/04/05 03:26:23;;;;;;;56.88;28.60;;;11.60;99.90;;;;;;6246727;22;20004;-82
2022/04/05 03:28:49;;;;;;;49.35;27.60;;;11.50;99.90;;;;;;6243793;23;20035;-82
2022/04/05 03:31:14;;;;;;;48.63;27.42;;;11.50;99.90;;;;;;6245538;23;20443;-82
2022/04/05 03:33:40;;;;;;;52.63;27.55;;;11.60;99.90;;;;;;6244840;23;20050;-81
2022/04/05 03:36:06;;;;;;;40.95;25.48;;;11.60;99.90;;;;;;6245564;23;20011;-81
2022/04/05 03:38:32;;;;;;;48.70;27.52;;;11.60;99.90;;;;;;6245869;22;20075;-83
2022/04/05 03:40:57;;;;;;;49.47;26.83;;;11.60;99.90;;;;;;6246025;23;20012;-81
2022/04/05 03:43:23;;;;;;;42.03;24.67;;;11.60;99.90;;;;;;6244369;23;20001;-81
2022/04/05 03:45:49;;;;;;;50.80;25.95;;;11.60;99.90;;;;;;6247690;22;20015;-80
2022/04/05 03:48:16;;;;;;;48.72;24.42;;;11.70;99.90;;;;;;6251727;22;20000;-81
2022/04/05 03:50:42;;;;;;;43.35;23.00;;;11.70;99.90;;;;;;6244849;22;20031;-79
2022/04/05 03:53:08;;;;;;;43.13;23.88;;;11.60;99.90;;;;;;6245670;23;20072;-82
2022/04/05 03:55:34;;;;;;;50.63;25.38;;;11.50;99.90;;;;;;6243731;23;20432;-81
2022/04/05 03:57:59;;;;;;;38.83;22.63;;;11.50;99.90;;;;;;6245525;22;20008;-81
2022/04/05 04:00:25;;;;;;;48.38;24.17;;;11.50;99.90;;;;;;6244292;23;20019;-81
2022/04/05 04:02:51;;;;;;;48.70;24.52;;;11.50;99.90;;;;;;6245521;23;20477;-80
2022/04/05 04:05:20;;;;;;;39.28;22.10;;;11.50;99.90;;;;;;6245708;23;20326;-80
2022/04/05 04:07:47;;;;;;;41.33;24.48;;;11.50;99.90;;;;;;6245270;22;20322;-81
2022/04/05 04:10:13;;;;;;;48.25;24.25;;;11.50;99.90;;;;;;6245746;22;20000;-80
2022/04/05 04:12:39;;;;;;;53.78;24.90;;;11.50;99.90;;;;;;6245405;23;20004;-81
2022/04/05 04:15:06;;;;;;;46.25;25.58;;;11.50;99.90;;;;;;6246010;23;20000;-79
2022/04/05 04:17:31;;;;;;;39.97;22.40;;;11.50;99.90;;;;;;6243714;23;20058;-80
2022/04/05 04:19:57;;;;;;;47.67;23.90;;;11.50;99.90;;;;;;6244938;23;20368;-80
2022/04/05 04:22:23;;;;;;;45.15;22.98;;;11.50;99.90;;;;;;6243999;22;20004;-80
2022/04/05 04:24:49;;;;;;;42.92;22.80;;;11.50;99.90;;;;;;6245224;23;20011;-80
2022/04/05 04:27:15;;;;;;;43.55;22.75;;;11.50;99.90;;;;;;6243693;22;20417;-80
2022/04/05 04:29:41;;;;;;;43.10;24.08;;;11.50;99.90;;;;;;6245166;23;20444;-80
2022/04/05 04:32:07;;;;;;;49.85;23.33;;;11.50;99.90;;;;;;6244002;23;20085;-81
2022/04/05 04:34:33;;;;;;;44.22;23.00;;;11.50;99.90;;;;;;6244553;22;20075;-80
2022/04/05 04:36:58;;;;;;;49.33;26.45;;;11.40;99.90;;;;;;6245456;23;20092;-80
2022/04/05 04:39:25;;;;;;;41.08;22.48;;;11.50;99.90;;;;;;6245654;22;20016;-80
2022/04/05 04:41:51;;;;;;;37.03;22.40;;;11.50;99.90;;;;;;6243313;22;20107;-79
2022/04/05 04:44:17;;;;;;;39.83;22.75;;;11.50;99.90;;;;;;6243484;23;20401;-80
2022/04/05 04:46:43;;;;;;;38.35;22.50;;;11.50;99.90;;;;;;6244015;22;20007;-80
2022/04/05 04:49:09;;;;;;;41.47;22.85;;;11.50;99.90;;;;;;6244192;22;20010;-79
2022/04/05 04:51:35;;;;;;;41.03;22.83;;;11.40;99.90;;;;;;6244831;23;20031;-80
2022/04/05 04:54:01;;;;;;;43.45;23.90;;;11.50;99.90;;;;;;6243453;23;20089;-80
2022/04/05 04:56:27;;;;;;;43.03;23.10;;;11.50;99.90;;;;;;6244264;23;20011;-80
2022/04/05 04:58:53;;;;;;;41.60;23.60;;;11.50;99.90;;;;;;6243758;22;20050;-80
2022/04/05 05:01:19;;;;;;;35.78;19.98;;;11.60;99.90;;;;;;6242966;23;20015;-82
2022/04/05 05:03:45;;;;;;;45.58;23.95;;;11.50;99.90;;;;;;6244535;22;20008;-79
2022/04/05 05:06:11;;;;;;;41.08;22.95;;;11.50;99.90;;;;;;6244450;23;20077;-81
2022/04/05 05:08:36;;;;;;;45.53;24.15;;;11.50;99.90;;;;;;6245184;23;19996;-81
2022/04/05 05:11:02;;;;;;;38.20;21.17;;;11.50;99.90;;;;;;6244373;23;20000;-81
2022/04/05 05:13:28;;;;;;;44.33;23.83;;;11.50;99.90;;;;;;6241099;23;20341;-81
2022/04/05 05:15:54;;;;;;;48.08;24.58;;;11.60;99.90;;;;;;6243177;22;20313;-81
2022/04/05 05:18:20;;;;;;;36.95;21.27;;;11.50;99.90;;;;;;6242695;23;20057;-81
2022/04/05 05:20:46;;;;;;;39.95;20.95;;;11.40;99.90;;;;;;6244244;23;20008;-80
2022/04/05 05:23:11;;;;;;;42.13;22.13;;;11.50;99.90;;;;;;6243377;23;20001;-80
2022/04/05 05:25:38;;;;;;;41.92;22.15;;;11.40;99.90;;;;;;6244248;23;20000;-79
2022/04/05 05:28:04;;;;;;;39.53;22.77;;;11.50;99.90;;;;;;6242829;22;20008;-79
2022/04/05 05:30:30;;;;;;;37.38;21.95;;;11.50;99.90;;;;;;6244757;22;20083;-80
2022/04/05 05:32:55;;;;;;;46.20;25.73;;;11.50;99.90;;;;;;6243289;23;20036;-81
2022/04/05 05:35:21;;;;;;;48.33;24.65;;;11.50;99.90;;;;;;6243928;23;20477;-80
2022/04/05 05:37:48;;;;;;;46.67;25.90;;;11.50;99.90;;;;;;6244120;23;20492;-80
2022/04/05 05:40:15;;;;;;;45.85;24.58;;;11.50;99.90;;;;;;6244824;22;20008;-79
2022/04/05 05:42:47;;;;;;;42.17;23.48;;;11.50;99.90;;;;;;6244572;22;20000;-80
2022/04/05 05:45:14;;;;;;;44.25;24.38;;;11.50;99.90;;;;;;6243385;23;20314;-79
2022/04/05 05:47:40;;;;;;;46.85;24.52;;;11.40;99.90;;;;;;6243977;22;20000;-80
2022/04/05 05:50:07;;;;;;;40.60;23.58;;;11.50;99.90;;;;;;6242750;23;20334;-79
2022/04/05 05:52:32;;;;;;;40.58;23.88;;;11.50;99.90;;;;;;6243040;22;20428;-81
2022/04/05 05:54:58;;;;;;;45.63;24.13;;;11.50;99.90;;;;;;6243634;23;20000;-80
2022/04/05 05:57:23;;;;;;;48.58;25.98;;;11.50;99.90;;;;;;6244423;23;20004;-80
2022/04/05 05:59:49;;;;;;;48.08;26.13;;;11.50;99.90;;;;;;6242540;23;20100;-83
2022/04/05 06:02:15;;;;;;;52.60;27.67;;;11.40;99.90;;;;;;6243976;23;20007;-81
2022/04/05 06:04:40;;;;;;;42.92;24.75;;;11.50;99.90;;;;;;6242989;23;20035;-80
2022/04/05 06:07:06;;;;;;;47.75;26.40;;;11.50;99.90;;;;;;6242229;23;20087;-79
2022/04/05 06:09:31;;;;;;;43.72;24.38;;;11.50;99.90;;;;;;6246849;23;20034;-76
2022/04/05 06:11:57;;;;;;;51.45;26.70;;;11.50;99.90;;;;;;6249219;23;20000;-79
2022/04/05 06:14:23;;;;;;;46.60;26.35;;;11.60;99.90;;;;;;6243254;23;20058;-79
2022/04/05 06:16:48;;;;;;;47.72;26.02;;;11.50;99.90;;;;;;6243493;23;20456;-79
2022/04/05 06:19:14;;;;;;;48.28;29.48;;;11.50;99.90;;;;;;6244766;23;20012;-79
2022/04/05 06:21:40;;;;;;;46.35;26.52;;;11.50;99.90;;;;;;6243911;23;20449;-74
2022/04/05 06:24:06;;;;;;;45.50;26.88;;;11.50;99.90;;;;;;6243390;23;20000;-79
2022/04/05 06:26:32;;;;;;;49.88;28.70;;;11.50;99.90;;;;;;6242893;22;20005;-79
2022/04/05 06:28:57;;;;;;;48.97;28.77;;;11.60;99.90;;;;;;6244213;23;20079;-79
2022/04/05 06:31:23;;;;;;;45.42;26.45;;;11.60;99.90;;;;;;6242787;23;20008;-79
2022/04/05 06:33:49;;;;;;;49.13;28.83;;;11.60;99.90;;;;;;6244843;23;20012;-79
2022/04/05 06:36:15;;;;;;;52.70;28.80;;;11.70;99.90;;;;;;6244412;23;20000;-79
2022/04/05 06:38:40;;;;;;;49.50;27.73;;;11.60;99.90;;;;;;6242512;23;20000;-78
2022/04/05 06:41:06;;;;;;;42.08;25.85;;;11.60;99.90;;;;;;6243315;23;20481;-77
2022/04/05 06:43:32;;;;;;;40.67;25.95;;;11.60;99.90;;;;;;6242977;23;20062;-80
2022/04/05 06:45:58;;;;;;;45.35;26.33;;;11.60;99.90;;;;;;6242792;22;20024;-80
2022/04/05 06:48:23;;;;;;;44.22;25.95;;;11.70;99.90;;;;;;6242638;23;19996;-79
2022/04/05 06:50:50;;;;;;;37.03;25.33;;;11.70;99.90;;;;;;6243941;23;20008;-81
2022/04/05 06:53:17;;;;;;;42.83;26.52;;;11.70;99.90;;;;;;6244789;22;20071;-79
2022/04/05 06:55:42;;;;;;;41.47;25.73;;;11.80;99.90;;;;;;6246121;22;20007;-80
2022/04/05 06:58:08;;;;;;;40.55;24.17;;;11.80;99.90;;;;;;6244250;23;20008;-81
2022/04/05 07:00:35;;;;;;;35.83;23.67;;;11.80;99.90;;;;;;6245055;22;20012;-81
2022/04/05 07:03:01;;;;;;;37.05;23.33;;;11.80;99.90;;;;;;6245169;22;20049;-81
2022/04/05 07:05:28;;;;;;;32.47;21.73;;;11.90;99.90;;;;;;6245138;22;20075;-80
2022/04/05 07:07:54;;;;;;;35.35;21.90;;;11.90;99.90;;;;;;6245107;22;20000;-80
2022/04/05 07:10:20;;;;;;;33.70;21.60;;;11.90;99.90;;;;;;6246252;23;20083;-81
2022/04/05 07:12:47;;;;;;;33.03;20.60;;;11.90;99.90;;;;;;6244395;22;20087;-81
2022/04/05 07:15:13;;;;;;;35.35;22.33;;;11.90;99.90;;;;;;6246029;22;20028;-80
2022/04/05 07:17:40;;;;;;;32.67;20.00;;;12.00;99.90;;;;;;6244642;22;20438;-81
2022/04/05 07:20:08;;;;;;;29.27;18.98;;;12.00;99.90;;;;;;6244857;22;20035;-80
2022/04/05 07:22:34;;;;;;;34.45;20.88;;;12.00;99.90;;;;;;6243022;22;20028;-80
2022/04/05 07:25:00;;;;;;;28.80;19.63;;;12.00;99.90;;;;;;6245425;22;20004;-80
2022/04/05 07:27:26;;;;;;;27.45;19.10;;;11.90;99.90;;;;;;6242868;22;20011;-79
2022/04/05 07:29:51;;;;;;;30.00;18.80;;;11.90;99.90;;;;;;6245276;23;20005;-79
2022/04/05 07:32:17;;;;;;;33.17;19.48;;;11.90;99.90;;;;;;6244925;23;20577;-79
2022/04/05 07:34:43;;;;;;;25.25;17.35;;;12.00;99.90;;;;;;6242430;23;20079;-79
2022/04/05 07:37:11;;;;;;;32.95;18.45;;;12.00;99.90;;;;;;6245662;22;19996;-79
2022/04/05 07:39:38;;;;;;;24.55;17.52;;;12.00;99.90;;;;;;6244829;22;20000;-80
2022/04/05 07:42:04;;;;;;;29.48;17.60;;;12.00;99.90;;;;;;6243370;22;20326;-80
2022/04/05 07:44:29;;;;;;;29.23;16.90;;;11.90;99.90;;;;;;6245384;22;20008;-82
2022/04/05 07:46:55;;;;;;;24.83;16.77;;;11.90;99.90;;;;;;6244264;23;20465;-80
2022/04/05 07:49:21;;;;;;;26.33;16.30;;;11.90;99.90;;;;;;6244750;22;20078;-85
2022/04/05 07:51:47;;;;;;;28.23;16.10;;;11.90;99.90;;;;;;6242102;22;20066;-85
2022/04/05 07:54:12;;;;;;;28.13;17.70;;;12.00;99.90;;;;;;6243066;23;20583;-81
2022/04/05 07:56:38;;;;;;;27.50;17.83;;;11.90;99.90;;;;;;6243978;23;20003;-81
2022/04/05 07:59:04;;;;;;;26.15;16.95;;;12.00;99.90;;;;;;6244048;22;20333;-82
2022/04/05 08:01:30;;;;;;;26.58;16.67;;;12.00;99.90;;;;;;6241454;23;20012;-85
2022/04/05 08:03:56;;;;;;;26.85;16.92;;;12.00;99.90;;;;;;6243900;23;19996;-85
2022/04/05 08:06:24;;;;;;;23.42;15.40;;;12.00;99.90;;;;;;6245702;22;20004;-85
2022/04/05 08:08:50;;;;;;;27.77;16.48;;;11.90;99.90;;;;;;6242814;23;20007;-85
2022/04/05 08:11:16;;;;;;;26.08;16.70;;;12.00;99.90;;;;;;6247046;22;20583;-86
2022/04/05 08:13:42;;;;;;;26.92;16.48;;;12.00;99.90;;;;;;6246205;23;19996;-87
2022/04/05 08:16:07;;;;;;;26.63;17.42;;;12.00;99.90;;;;;;6247460;23;20015;-86
2022/04/05 08:18:34;;;;;;;26.92;17.38;;;12.10;99.90;;;;;;6243676;23;20329;-80
2022/04/05 08:20:59;;;;;;;25.90;17.95;;;12.00;99.90;;;;;;6243740;22;20012;-80
2022/04/05 08:23:26;;;;;;;28.92;18.58;;;12.10;99.90;;;;;;6242925;23;20004;-80
2022/04/05 08:25:52;;;;;;;29.38;21.20;;;12.00;99.90;;;;;;6244601;22;20004;-80
2022/04/05 08:28:18;;;;;;;29.45;18.85;;;12.10;99.90;;;;;;6243335;22;20004;-80
2022/04/05 08:30:44;;;;;;;29.65;19.85;;;12.10;99.90;;;;;;6244980;22;20054;-80
2022/04/05 08:33:10;;;;;;;33.83;21.35;;;12.10;99.90;;;;;;6243573;22;20004;-80
2022/04/05 08:35:37;;;;;;;29.73;21.38;;;12.20;99.90;;;;;;6250336;23;20016;-80
2022/04/05 08:38:03;;;;;;;28.25;19.40;;;12.20;99.90;;;;;;6248920;22;19996;-81
2022/04/05 08:40:28;;;;;;;26.38;19.73;;;12.30;99.90;;;;;;6244758;23;20063;-81
2022/04/05 08:42:56;;;;;;;28.73;19.15;;;12.30;99.90;;;;;;6244903;23;20430;-82
2022/04/05 08:45:23;;;;;;;29.67;18.27;;;12.30;99.90;;;;;;6244741;22;20001;-82
2022/04/05 08:47:52;;;;;;;25.40;18.55;;;12.30;99.90;;;;;;6245045;22;20075;-82
2022/04/05 08:50:21;;;;;;;23.30;16.65;;;12.30;99.90;;;;;;6245274;22;20008;-84
2022/04/05 08:52:48;;;;;;;26.75;17.20;;;12.40;99.90;;;;;;6243739;22;20004;-79
2022/04/05 08:55:15;;;;;;;28.08;18.08;;;12.40;99.90;;;;;;6243761;22;20007;-78
2022/04/05 08:57:41;;;;;;;24.88;17.08;;;12.40;99.90;;;;;;6244591;22;20004;-82
2022/04/05 09:00:09;;;;;;;22.58;16.73;;;12.40;99.90;;;;;;6244983;22;20408;-82
2022/04/05 09:02:35;;;;;;;26.25;18.27;;;12.50;99.90;;;;;;6242199;22;20000;-82
2022/04/05 09:05:02;;;;;;;23.63;16.88;;;12.60;99.90;;;;;;6244449;23;20004;-82
2022/04/05 09:07:34;;;;;;;22.67;16.80;;;12.60;99.90;;;;;;6244604;22;20372;-82
2022/04/05 09:10:15;;;;;;;21.67;17.42;;;12.60;99.90;;;;;;6245468;22;20008;-83
2022/04/05 09:12:49;;;;;;;24.23;17.85;;;12.60;99.90;;;;;;6242171;22;20437;-81
2022/04/05 09:15:21;;;;;;;24.25;18.10;;;12.70;99.90;;;;;;6244691;22;20004;-81
2022/04/05 09:17:49;;;;;;;22.63;16.93;;;12.70;99.90;;;;;;6243058;23;20382;-78
2022/04/05 09:20:17;;;;;;;21.58;16.88;;;12.70;99.90;;;;;;6244897;22;20008;-79
2022/04/05 09:22:43;;;;;;;25.52;17.80;;;12.70;99.90;;;;;;6242555;22;20028;-79
2022/04/05 09:25:12;;;;;;;24.00;17.33;;;12.70;99.90;;;;;;6244086;23;20000;-78
2022/04/05 09:27:58;;;;;;;21.45;16.70;;;12.90;99.90;;;;;;6242400;23;20000;-79
2022/04/05 09:30:27;;;;;;;20.58;16.67;;;12.80;99.90;;;;;;6242698;23;20015;-79
2022/04/05 09:32:54;;;;;;;21.48;18.17;;;12.80;99.90;;;;;;6244518;22;20000;-79
2022/04/05 09:35:22;;;;;;;24.60;19.08;;;12.80;99.90;;;;;;6243358;22;20031;-79
2022/04/05 09:37:48;;;;;;;26.75;19.00;;;12.80;99.90;;;;;;6243299;22;20004;-79
2022/04/05 09:40:32;;;;;;;24.27;17.45;;;12.90;99.90;;;;;;6245029;22;20322;-80
2022/04/05 09:42:57;;;;;;;21.48;16.95;;;12.90;99.90;;;;;;6244618;22;20445;-79
2022/04/05 09:46:02;;;;;;;23.92;17.17;;;12.90;99.90;;;;;;6244148;23;20028;-79
2022/04/05 09:48:35;;;;;;;20.25;16.70;;;12.90;99.90;;;;;;6151282;23;20033;-78
2022/04/05 09:51:09;;;;;;;23.25;17.50;;;12.90;99.90;;;;;;6231557;22;20058;-78
2022/04/05 09:53:47;;;;;;;24.63;19.33;;;12.90;99.90;;;;;;6242653;23;20024;-78
2022/04/05 09:56:19;;;;;;;20.52;17.30;;;13.00;99.90;;;;;;6242383;23;20008;-78
2022/04/05 09:58:45;;;;;;;;;;;13.00;99.90;;;;;;6244086;22;20015;-76
2022/04/05 10:01:11;;;;;;;22.15;16.98;;;13.00;99.90;;;;;;6243983;23;20241;-79
2022/04/05 10:04:15;;;;;;;19.42;16.00;;;13.10;99.90;;;;;;6244851;22;19996;-77
2022/04/05 10:06:44;;;;;;;19.50;15.23;;;13.20;99.90;;;;;;6243806;23;20071;-81
2022/04/05 10:09:12;;;;;;;18.85;14.73;;;13.20;99.90;;;;;;6242673;23;20000;-84
2022/04/05 10:11:39;;;;;;;17.52;14.20;;;13.20;99.90;;;;;;6240629;23;20091;-84
2022/04/05 10:14:06;;;;;;;16.63;14.73;;;13.10;99.90;;;;;;6244139;22;20004;-81
2022/04/05 10:16:33;;;;;;;17.05;13.50;;;13.10;99.90;;;;;;6243340;22;20004;-81
2022/04/05 10:19:04;;;;;;;17.98;13.77;;;13.20;99.90;;;;;;6242490;23;20000;-85
2022/04/05 10:21:31;;;;;;;17.33;13.43;;;13.30;99.90;;;;;;6242191;22;20083;-82
2022/04/05 10:23:58;;;;;;;14.65;12.95;;;13.30;99.90;;;;;;6244200;22;20409;-81
2022/04/05 10:26:27;;;;;;;18.58;13.20;;;13.30;99.90;;;;;;6244766;23;20003;-82
2022/04/05 10:28:55;;;;;;;15.88;12.38;;;13.40;99.90;;;;;;6244026;22;20471;-83
2022/04/05 10:31:32;;;;;;;14.93;11.32;;;13.50;99.90;;;;;;6245251;22;20425;-81
2022/04/05 10:34:09;;;;;;;12.80;11.45;;;13.70;99.90;;;;;;6246091;22;20000;-82
2022/04/05 10:36:35;;;;;;;11.85;10.05;;;13.80;99.90;;;;;;6246602;23;20008;-83
2022/04/05 10:39:18;;;;;;;12.13;10.85;;;13.80;99.90;;;;;;6244620;23;20008;-83
2022/04/05 10:42:13;;;;;;;13.05;10.73;;;13.90;99.90;;;;;;6243876;23;20091;-83
2022/04/05 10:45:12;;;;;;;11.68;10.40;;;13.90;99.90;;;;;;6220663;23;20004;-81
2022/04/05 10:47:57;;;;;;;11.10;9.38;;;14.00;99.90;;;;;;6238165;23;20027;-80
2022/04/05 10:50:23;;;;;;;13.88;11.60;;;13.90;99.90;;;;;;6244845;23;20414;-81
2022/04/05 10:53:10;;;;;;;14.25;11.68;;;13.90;99.90;;;;;;6245776;22;20023;-81
2022/04/05 10:56:07;;;;;;;15.30;11.40;;;14.00;99.90;;;;;;6244333;23;20000;-82
2022/04/05 10:58:45;;;;;;;12.13;10.93;;;13.90;99.90;;;;;;6239747;23;20075;-83
2022/04/05 11:01:43;;;;;;;12.52;11.15;;;13.90;99.90;;;;;;6245528;23;20090;-82
2022/04/05 11:04:16;;;;;;;9.10;7.78;;;14.00;99.90;;;;;;6245697;22;20004;-81
2022/04/05 11:07:05;;;;;;;11.15;8.00;;;14.00;99.90;;;;;;6245171;23;20008;-81
2022/04/05 11:09:40;;;;;;;10.07;8.57;;;14.00;99.90;;;;;;6246134;22;20000;-82
2022/04/05 11:12:28;;;;;;;10.75;9.15;;;14.10;99.90;;;;;;6244957;22;20053;-79
2022/04/05 11:15:03;;;;;;;12.27;10.35;;;14.10;99.90;;;;;;6245873;22;19996;-81
2022/04/05 11:17:30;;;;;;;10.73;9.63;;;14.10;99.90;;;;;;6245865;22;20436;-81
2022/04/05 11:19:58;;;;;;;11.15;10.02;;;14.10;99.90;;;;;;6246170;22;20459;-80
2022/04/05 11:22:27;;;;;;;10.25;9.18;;;14.20;99.90;;;;;;6244347;23;20004;-82
2022/04/05 11:25:13;;;;;;;9.73;8.73;;;14.00;99.90;;;;;;6269426;22;20000;-81
2022/04/05 11:27:46;;;;;;;12.73;8.85;;;14.00;99.90;;;;;;6266893;22;20058;-81
2022/04/05 11:30:21;;;;;;;;;;;14.00;99.90;;;;;;6245569;22;20071;-78
2022/04/05 11:33:18;;;;;;;9.85;8.85;;;14.00;99.90;;;;;;6242295;22;19907;-81
2022/04/05 11:35:50;;;;;;;9.23;8.05;;;14.00;99.90;;;;;;6243930;23;20032;-80
2022/04/05 11:38:19;;;;;;;9.32;8.32;;;14.00;99.90;;;;;;6244450;22;20000;-80
2022/04/05 11:40:46;;;;;;;8.82;7.93;;;14.00;99.90;;;;;;6245234;23;20012;-82
2022/04/05 11:43:18;;;;;;;8.07;7.28;;;14.10;99.90;;;;;;6245750;22;20326;-83
2022/04/05 11:45:47;;;;;;;9.55;7.75;;;14.10;99.90;;;;;;6243852;23;20330;-82
2022/04/05 11:48:17;;;;;;;8.45;7.65;;;14.10;99.90;;;;;;6245226;22;20004;-80
2022/04/05 11:50:43;;;;;;;7.45;6.75;;;14.00;99.90;;;;;;6242605;23;20090;-82
2022/04/05 11:53:27;;;;;;;8.93;7.70;;;14.00;99.90;;;;;;6243012;23;19996;-81
2022/04/05 11:56:10;;;;;;;8.45;6.70;;;14.00;99.90;;;;;;6245104;22;20004;-81
2022/04/05 11:58:38;;;;;;;7.07;6.38;;;14.00;99.90;;;;;;6244653;22;20031;-81
2022/04/05 12:01:09;;;;;;;7.45;6.70;;;14.00;99.90;;;;;;6245248;22;20020;-82
2022/04/05 12:03:54;;;;;;;9.00;7.35;;;13.90;99.90;;;;;;6245788;22;20000;-80
2022/04/05 12:06:23;;;;;;;12.02;8.32;;;13.90;99.90;;;;;;6245874;22;20429;-81
2022/04/05 12:08:53;;;;;;;8.98;8.07;;;14.00;99.90;;;;;;6268854;22;20042;-82
2022/04/05 12:11:21;;;;;;;9.40;8.48;;;14.00;99.90;;;;;;6245168;22;20002;-82
2022/04/05 12:14:09;;;;;;;8.32;7.35;;;14.00;99.90;;;;;;6245143;22;20027;-81
2022/04/05 12:16:52;;;;;;;6.68;5.97;;;14.00;99.90;;;;;;6246060;22;20383;-81
2022/04/05 12:19:28;;;;;;;9.48;7.45;;;14.00;99.90;;;;;;6241496;23;20386;-81
2022/04/05 12:22:02;;;;;;;7.03;6.43;;;14.10;99.90;;;;;;6268708;22;20012;-82
2022/04/05 12:24:29;;;;;;;7.07;6.25;;;14.10;99.90;;;;;;6244155;22;20052;-80
2022/04/05 12:26:56;;;;;;;6.90;6.25;;;14.00;99.90;;;;;;6245466;22;20004;-79
2022/04/05 12:29:23;;;;;;;8.07;7.30;;;13.90;99.90;;;;;;6243681;22;20004;-79
2022/04/05 12:31:49;;;;;;;9.60;8.60;;;14.00;99.90;;;;;;6243094;22;20000;-77
2022/04/05 12:34:15;;;;;;;10.73;9.75;;;14.00;99.90;;;;;;6244414;22;20083;-79